createdAt,value
2022-10-12T00:00:15.794Z,5.59
2022-10-12T00:03:13.292Z,5.58
2022-10-12T00:05:51.683Z,5.60
2022-10-12T00:08:27.592Z,5.58
2022-10-12T00:11:03.326Z,5.60
2022-10-12T00:13:39.535Z,5.60
2022-10-12T00:16:18.535Z,5.61
2022-10-12T00:18:58.573Z,5.60
2022-10-12T00:21:35.159Z,5.55
2022-10-12T00:24:13.289Z,5.51
2022-10-12T00:26:50.737Z,5.36
2022-10-12T00:29:26.755Z,5.27
2022-10-12T00:32:04.248Z,5.22
2022-10-12T00:34:40.472Z,5.18
2022-10-12T00:37:16.292Z,5.13
2022-10-12T00:39:52.550Z,5.07
2022-10-12T00:42:28.242Z,5.06
2022-10-12T00:45:04.018Z,5.04
2022-10-12T00:47:45.965Z,4.99
2022-10-12T00:50:22.320Z,4.92
2022-10-12T00:53:03.203Z,4.90
2022-10-12T00:55:47.372Z,4.89
2022-10-12T00:58:24.211Z,4.88
2022-10-12T01:01:01.725Z,4.92
2022-10-12T01:03:39.668Z,4.85
2022-10-12T01:06:16.519Z,4.82
2022-10-12T01:08:55.247Z,4.79
2022-10-12T01:11:30.997Z,4.72
2022-10-12T01:14:06.851Z,4.65
2022-10-12T01:16:53.979Z,4.60
2022-10-12T01:20:23.653Z,4.51
2022-10-12T01:23:29.519Z,4.49
2022-10-12T01:27:03.935Z,4.45
2022-10-12T01:30:21.974Z,4.44
2022-10-12T01:33:33.561Z,4.49
2022-10-12T01:36:19.337Z,4.52
2022-10-12T01:39:05.721Z,4.54
2022-10-12T01:41:48.717Z,4.51
2022-10-12T01:44:30.162Z,4.49
2022-10-12T01:47:05.969Z,4.42
2022-10-12T01:49:42.342Z,4.40
2022-10-12T01:52:33.779Z,4.38
2022-10-12T01:55:36.943Z,4.34
2022-10-12T01:58:43.248Z,4.27
2022-10-12T02:01:36.389Z,4.23
2022-10-12T02:04:25.792Z,4.21
2022-10-12T02:07:13.403Z,4.16
2022-10-12T02:09:51.289Z,4.10
2022-10-12T02:12:31.885Z,4.02
2022-10-12T02:15:14.619Z,4.03
2022-10-12T02:17:53.792Z,4.09
2022-10-12T02:20:32.298Z,4.12
2022-10-12T02:23:08.829Z,4.14
2022-10-12T02:25:46.300Z,4.18
2022-10-12T02:28:29.088Z,4.20
2022-10-12T02:31:16.265Z,4.20
2022-10-12T02:34:01.889Z,4.17
2022-10-12T02:36:54.214Z,4.14
2022-10-12T02:39:39.458Z,4.09
2022-10-12T02:42:23.073Z,4.04
2022-10-12T02:45:01.544Z,4.00
2022-10-12T02:47:40.412Z,3.92
2022-10-12T02:50:19.473Z,3.86
2022-10-12T02:52:56.159Z,3.81
2022-10-12T02:55:38.589Z,3.79
2022-10-12T02:58:14.535Z,3.76
2022-10-12T03:00:50.469Z,3.76
2022-10-12T03:03:26.513Z,3.77
2022-10-12T03:06:02.209Z,3.82
2022-10-12T03:08:38.296Z,3.88
2022-10-12T03:11:16.668Z,3.92
2022-10-12T03:13:54.800Z,3.91
2022-10-12T03:16:30.558Z,3.92
2022-10-12T03:19:06.371Z,3.90
2022-10-12T03:21:42.404Z,3.89
2022-10-12T03:24:18.164Z,3.81
2022-10-12T03:26:53.879Z,3.73
2022-10-12T03:29:29.664Z,3.71
2022-10-12T03:32:05.667Z,3.65
2022-10-12T03:34:41.462Z,3.59
2022-10-12T03:37:17.206Z,3.54
2022-10-12T03:39:52.942Z,3.50
2022-10-12T03:42:28.759Z,3.50
2022-10-12T03:45:04.997Z,3.50
2022-10-12T03:47:41.484Z,3.48
2022-10-12T03:50:18.065Z,3.48
2022-10-12T03:52:53.945Z,3.50
2022-10-12T03:55:30.454Z,3.52
2022-10-12T03:58:06.374Z,3.46
2022-10-12T04:00:42.428Z,3.41
2022-10-12T04:03:18.298Z,3.39
2022-10-12T04:06:00.116Z,3.33
2022-10-12T04:08:34.391Z,3.25
2022-10-12T04:11:10.465Z,3.22
2022-10-12T04:13:46.365Z,3.18
2022-10-12T04:16:24.109Z,3.12
2022-10-12T04:19:01.999Z,3.06
2022-10-12T04:21:37.857Z,3.00
2022-10-12T04:24:14.327Z,2.97
2022-10-12T04:26:50.944Z,2.94
2022-10-12T04:29:26.757Z,2.90
2022-10-12T04:32:02.603Z,2.89
2022-10-12T04:34:38.370Z,2.88
2022-10-12T04:37:14.211Z,2.93
2022-10-12T04:39:50.098Z,2.98
2022-10-12T04:42:26.091Z,3.04
2022-10-12T04:45:02.150Z,3.12
2022-10-12T04:47:40.452Z,3.16
2022-10-12T04:50:16.828Z,3.20
2022-10-12T04:52:52.796Z,3.21
2022-10-12T04:55:29.300Z,3.24
2022-10-12T04:58:05.340Z,3.19
2022-10-12T05:00:41.305Z,3.16
2022-10-12T05:03:17.518Z,3.13
2022-10-12T05:05:53.376Z,3.10
2022-10-12T05:08:29.375Z,3.03
2022-10-12T05:11:05.466Z,3.02
2022-10-12T05:13:41.285Z,3.03
2022-10-12T05:16:17.128Z,3.00
2022-10-12T05:18:53.295Z,3.01
2022-10-12T05:21:29.335Z,3.07
2022-10-12T05:24:05.529Z,3.17
2022-10-12T05:26:41.450Z,3.27
2022-10-12T05:29:17.429Z,3.35
2022-10-12T05:31:53.458Z,3.47
2022-10-12T05:34:29.188Z,3.57
2022-10-12T05:37:05.005Z,3.64
2022-10-12T05:39:40.778Z,3.69
2022-10-12T05:42:16.611Z,3.77
2022-10-12T05:44:52.519Z,3.87
2022-10-12T05:47:28.708Z,3.98
2022-10-12T05:50:04.756Z,4.10
2022-10-12T05:52:40.853Z,4.24
2022-10-12T05:55:17.427Z,4.36
2022-10-12T05:57:53.370Z,4.47
2022-10-12T06:00:29.337Z,4.59
2022-10-12T06:03:06.708Z,4.69
2022-10-12T06:05:43.296Z,4.80
2022-10-12T06:08:19.595Z,4.94
2022-10-12T06:10:56.046Z,5.10
2022-10-12T06:13:32.279Z,5.26
2022-10-12T06:16:08.880Z,5.43
2022-10-12T06:18:45.020Z,5.61
2022-10-12T06:21:33.157Z,5.82
2022-10-12T06:24:11.539Z,6.04
2022-10-12T06:26:47.515Z,6.26
2022-10-12T06:29:25.283Z,6.41
2022-10-12T06:32:01.071Z,6.59
2022-10-12T06:34:36.845Z,6.82
2022-10-12T06:37:25.276Z,7.09
2022-10-12T06:40:11.294Z,7.35
2022-10-12T06:42:47.413Z,7.59
2022-10-12T06:45:23.571Z,7.88
2022-10-12T06:47:59.703Z,8.23
2022-10-12T06:50:35.730Z,8.59
2022-10-12T06:53:12.052Z,8.90
2022-10-12T06:55:48.215Z,9.22
2022-10-12T06:58:24.353Z,9.55
2022-10-12T07:01:02.459Z,9.99
2022-10-12T07:03:39.154Z,10.53
2022-10-12T07:06:17.285Z,11.04
2022-10-12T07:08:56.490Z,11.35
2022-10-12T07:11:32.491Z,11.52
2022-10-12T07:14:08.406Z,11.57
2022-10-12T07:16:44.340Z,11.70
2022-10-12T07:19:20.323Z,11.99
2022-10-12T07:21:56.190Z,12.20
2022-10-12T07:24:36.490Z,12.36
2022-10-12T07:27:14.140Z,12.52
2022-10-12T07:29:49.898Z,12.81
2022-10-12T07:32:25.936Z,12.94
2022-10-12T07:35:01.893Z,13.09
2022-10-12T07:37:38.356Z,13.19
2022-10-12T07:40:16.001Z,13.37
2022-10-12T07:43:14.723Z,13.61
2022-10-12T07:45:48.088Z,13.76
2022-10-12T07:48:24.598Z,13.84
2022-10-12T07:51:05.928Z,13.96
2022-10-12T07:53:42.418Z,13.98
2022-10-12T07:56:20.591Z,13.88
2022-10-12T07:58:58.768Z,13.83
2022-10-12T08:01:35.897Z,13.90
2022-10-12T08:04:12.006Z,14.01
2022-10-12T08:06:47.999Z,14.08
2022-10-12T08:09:24.059Z,14.03
2022-10-12T08:12:00.324Z,14.07
2022-10-12T08:14:36.261Z,14.05
2022-10-12T08:17:12.609Z,14.17
2022-10-12T08:19:48.520Z,14.28
2022-10-12T08:22:24.457Z,14.31
2022-10-12T08:25:00.343Z,14.44
2022-10-12T08:27:38.836Z,14.55
2022-10-12T08:30:17.435Z,14.78
2022-10-12T08:32:53.382Z,15.02
2022-10-12T08:35:29.272Z,15.14
2022-10-12T08:38:05.255Z,15.06
2022-10-12T08:40:54.776Z,15.08
2022-10-12T08:43:49.634Z,15.16
2022-10-12T08:46:28.315Z,15.17
2022-10-12T08:49:13.737Z,15.18
2022-10-12T08:51:56.294Z,15.13
2022-10-12T08:54:40.679Z,14.93
2022-10-12T08:57:21.000Z,14.82
2022-10-12T08:59:56.958Z,14.77
2022-10-12T09:02:54.742Z,14.84
2022-10-12T09:05:40.641Z,14.71
2022-10-12T09:08:33.262Z,14.54
2022-10-12T09:11:29.794Z,14.53
2022-10-12T09:14:13.713Z,14.56
2022-10-12T09:16:53.015Z,14.58
2022-10-12T09:19:37.474Z,14.58
2022-10-12T09:22:21.365Z,14.51
2022-10-12T09:24:59.110Z,14.46
2022-10-12T09:27:36.949Z,14.46
2022-10-12T09:30:21.438Z,14.40
2022-10-12T09:33:20.995Z,14.39
2022-10-12T09:35:57.649Z,14.43
2022-10-12T09:38:33.601Z,14.45
2022-10-12T09:41:17.941Z,14.44
2022-10-12T09:43:59.275Z,14.45
2022-10-12T09:46:43.766Z,14.46
2022-10-12T09:49:19.757Z,14.50
2022-10-12T09:52:03.384Z,14.50
2022-10-12T09:54:47.333Z,14.54
2022-10-12T09:57:29.948Z,14.60
2022-10-12T10:00:24.355Z,14.67
2022-10-12T10:03:02.382Z,14.70
2022-10-12T10:05:40.412Z,14.74
2022-10-12T10:08:25.321Z,14.77
2022-10-12T10:11:04.295Z,14.77
2022-10-12T10:13:46.613Z,14.71
2022-10-12T10:16:25.574Z,14.68
2022-10-12T10:19:05.583Z,14.59
2022-10-12T10:21:43.024Z,14.54
2022-10-12T10:24:32.078Z,14.50
2022-10-12T10:27:27.676Z,14.48
2022-10-12T10:30:33.807Z,14.51
2022-10-12T10:33:21.871Z,14.58
2022-10-12T10:36:22.508Z,14.57
2022-10-12T10:39:05.785Z,14.44
2022-10-12T10:41:44.574Z,14.38
2022-10-12T10:44:32.669Z,14.30
2022-10-12T10:47:15.463Z,14.26
2022-10-12T10:49:59.315Z,14.28
2022-10-12T10:52:37.739Z,14.30
2022-10-12T10:55:27.937Z,14.24
2022-10-12T10:58:18.707Z,14.26
2022-10-12T11:01:03.170Z,14.30
2022-10-12T11:03:55.680Z,14.30
2022-10-12T11:06:42.506Z,14.26
2022-10-12T11:09:25.818Z,14.26
2022-10-12T11:12:08.024Z,14.31
2022-10-12T11:14:50.285Z,14.41
2022-10-12T11:17:33.991Z,14.45
2022-10-12T11:20:38.401Z,14.53
2022-10-12T11:23:33.609Z,14.56
2022-10-12T11:26:24.200Z,14.61
2022-10-12T11:29:03.192Z,14.67
2022-10-12T11:31:47.271Z,14.67
2022-10-12T11:34:27.342Z,14.65
2022-10-12T11:37:19.065Z,14.61
2022-10-12T11:39:58.847Z,14.57
2022-10-12T11:42:43.776Z,14.62
2022-10-12T11:45:30.693Z,14.69
2022-10-12T11:48:15.877Z,14.69
2022-10-12T11:50:53.951Z,14.71
2022-10-12T11:53:42.959Z,14.71
2022-10-12T11:56:26.345Z,14.67
2022-10-12T11:59:11.360Z,14.65
2022-10-12T12:02:04.302Z,14.69
2022-10-12T12:04:45.444Z,14.70
2022-10-12T12:07:54.161Z,14.71
2022-10-12T12:11:20.258Z,14.76
2022-10-12T12:14:49.153Z,14.77
2022-10-12T12:17:32.297Z,14.80
2022-10-12T12:21:06.037Z,14.76
2022-10-12T12:23:54.579Z,14.75
2022-10-12T12:26:33.464Z,14.75
2022-10-12T12:29:26.690Z,14.69
2022-10-12T12:32:03.692Z,14.58
2022-10-12T12:34:48.883Z,14.59
2022-10-12T12:37:32.966Z,14.59
2022-10-12T12:40:24.742Z,14.57
2022-10-12T12:43:37.306Z,14.59
2022-10-12T12:46:16.463Z,14.58
2022-10-12T12:49:26.231Z,14.56
2022-10-12T12:52:02.341Z,14.55
2022-10-12T12:54:50.657Z,14.55
2022-10-12T12:58:02.632Z,14.49
2022-10-12T13:00:51.521Z,14.43
2022-10-12T13:04:15.251Z,14.43
2022-10-12T13:07:47.020Z,14.44
2022-10-12T13:10:45.084Z,14.40
2022-10-12T13:14:08.420Z,14.36
2022-10-12T13:17:32.260Z,14.33
2022-10-12T13:20:21.078Z,14.28
2022-10-12T13:23:03.002Z,14.24
2022-10-12T13:25:52.552Z,14.24
2022-10-12T13:28:40.925Z,14.18
2022-10-12T13:31:26.769Z,14.10
2022-10-12T13:34:17.029Z,14.04
2022-10-12T13:37:01.684Z,13.99
2022-10-12T13:39:44.915Z,13.98
2022-10-12T13:42:29.100Z,13.99
2022-10-12T13:45:17.239Z,14.00
2022-10-12T13:47:53.207Z,14.00
2022-10-12T13:50:29.960Z,14.02
2022-10-12T13:53:14.537Z,14.04
2022-10-12T13:56:01.895Z,14.03
2022-10-12T13:58:38.279Z,14.03
2022-10-12T14:01:15.305Z,14.04
2022-10-12T14:03:51.271Z,14.03
2022-10-12T14:06:38.352Z,14.05
2022-10-12T14:09:22.119Z,14.05
2022-10-12T14:11:59.668Z,14.03
2022-10-12T14:14:41.772Z,14.02
2022-10-12T14:17:22.036Z,14.01
2022-10-12T14:20:15.521Z,13.98
2022-10-12T14:22:53.908Z,13.96
2022-10-12T14:25:33.630Z,13.93
2022-10-12T14:28:29.388Z,13.91
2022-10-12T14:31:05.935Z,13.87
2022-10-12T14:33:42.337Z,13.85
2022-10-12T14:36:30.622Z,13.81
2022-10-12T14:39:21.759Z,13.76
2022-10-12T14:42:01.963Z,13.73
2022-10-12T14:44:47.553Z,13.69
2022-10-12T14:47:28.431Z,13.67
2022-10-12T14:50:09.809Z,13.64
2022-10-12T14:52:50.648Z,13.61
2022-10-12T14:55:29.643Z,13.56
2022-10-12T14:58:08.221Z,13.54
2022-10-12T15:00:44.928Z,13.50
2022-10-12T15:03:21.256Z,13.46
2022-10-12T15:05:57.110Z,13.42
2022-10-12T15:08:33.076Z,13.38
2022-10-12T15:11:11.532Z,13.33
2022-10-12T15:13:47.550Z,13.27
2022-10-12T15:16:28.426Z,13.20
2022-10-12T15:19:04.390Z,13.13
2022-10-12T15:21:40.189Z,13.07
2022-10-12T15:24:19.854Z,13.00
2022-10-12T15:26:55.817Z,12.93
2022-10-12T15:29:31.650Z,12.86
2022-10-12T15:32:08.651Z,12.78
2022-10-12T15:34:50.793Z,12.70
2022-10-12T15:37:30.410Z,12.63
2022-10-12T15:40:07.642Z,12.55
2022-10-12T15:42:43.585Z,12.46
2022-10-12T15:45:25.307Z,12.37
2022-10-12T15:48:01.928Z,12.22
2022-10-12T15:50:43.896Z,12.07
2022-10-12T15:53:24.882Z,11.90
2022-10-12T15:56:08.110Z,11.72
2022-10-12T15:58:44.602Z,11.55
2022-10-12T16:01:22.914Z,11.41
2022-10-12T16:03:58.765Z,11.26
2022-10-12T16:06:34.703Z,11.13
2022-10-12T16:09:10.586Z,10.99
2022-10-12T16:11:46.883Z,10.87
2022-10-12T16:14:24.511Z,10.73
2022-10-12T16:17:04.065Z,10.63
2022-10-12T16:19:39.863Z,10.51
2022-10-12T16:22:16.258Z,10.40
2022-10-12T16:24:52.090Z,10.30
2022-10-12T16:27:28.011Z,10.26
2022-10-12T16:30:04.108Z,10.18
2022-10-12T16:32:40.187Z,10.03
2022-10-12T16:35:17.293Z,9.86
2022-10-12T16:37:53.611Z,9.69
2022-10-12T16:40:30.105Z,9.56
2022-10-12T16:43:06.058Z,9.44
2022-10-12T16:45:42.035Z,9.31
2022-10-12T16:48:17.831Z,9.17
2022-10-12T16:50:53.790Z,9.04
2022-10-12T16:58:37.735Z,8.75
2022-10-12T17:01:18.041Z,8.66
2022-10-12T17:03:57.815Z,8.59
2022-10-12T17:06:33.773Z,8.51
2022-10-12T17:09:10.653Z,8.44
2022-10-12T17:11:46.471Z,8.39
2022-10-12T17:14:22.360Z,8.37
2022-10-12T17:16:58.354Z,8.35
2022-10-12T17:19:39.921Z,8.31
2022-10-12T17:22:17.945Z,8.26
2022-10-12T17:24:54.502Z,8.17
2022-10-12T17:27:32.431Z,8.06
2022-10-12T17:30:10.520Z,7.96
2022-10-12T17:32:46.530Z,7.87
2022-10-12T17:35:22.554Z,7.78
2022-10-12T17:37:58.340Z,7.68
2022-10-12T17:40:34.134Z,7.62
2022-10-12T17:43:09.909Z,7.56
2022-10-12T17:45:46.237Z,7.53
2022-10-12T17:48:22.056Z,7.52
2022-10-12T17:51:06.157Z,7.51
2022-10-12T17:53:43.206Z,7.50
2022-10-12T17:56:20.007Z,7.50
2022-10-12T17:59:02.156Z,7.47
2022-10-12T18:01:39.052Z,7.41
2022-10-12T18:04:17.191Z,7.35
2022-10-12T18:06:53.257Z,7.27
2022-10-12T18:09:29.332Z,7.20
2022-10-12T18:12:05.152Z,7.11
2022-10-12T18:14:41.432Z,7.03
2022-10-12T18:17:18.505Z,6.98
2022-10-12T18:19:54.891Z,6.93
2022-10-12T18:22:31.819Z,6.89
2022-10-12T18:25:09.839Z,6.86
2022-10-12T18:27:47.036Z,6.84
2022-10-12T18:30:22.989Z,6.81
2022-10-12T18:33:00.460Z,6.79
2022-10-12T18:35:39.338Z,6.78
2022-10-12T18:38:15.308Z,6.78
2022-10-12T18:40:51.196Z,6.76
2022-10-12T18:43:26.943Z,6.75
2022-10-12T18:46:05.324Z,6.76
2022-10-12T18:48:41.972Z,6.71
2022-10-12T18:51:26.336Z,6.66
2022-10-12T18:54:03.739Z,6.58
2022-10-12T18:56:41.872Z,6.52
2022-10-12T18:59:19.478Z,6.47
2022-10-12T19:01:56.252Z,6.39
2022-10-12T19:04:32.243Z,6.32
2022-10-12T19:07:08.485Z,6.22
2022-10-12T19:09:44.474Z,6.13
2022-10-12T19:12:21.261Z,6.04
2022-10-12T19:14:57.244Z,5.98
2022-10-12T19:17:34.783Z,5.91
2022-10-12T19:20:13.579Z,5.84
2022-10-12T19:22:49.745Z,5.75
2022-10-12T19:25:25.542Z,5.70
2022-10-12T19:28:02.027Z,5.66
2022-10-12T19:30:41.822Z,5.62
2022-10-12T19:33:18.156Z,5.56
2022-10-12T19:35:55.165Z,5.53
2022-10-12T19:38:32.189Z,5.47
2022-10-12T19:41:09.607Z,5.40
2022-10-12T19:43:45.546Z,5.37
2022-10-12T19:46:23.255Z,5.31
2022-10-12T19:49:01.761Z,5.27
2022-10-12T19:51:38.491Z,5.24
2022-10-12T19:54:17.157Z,5.19
2022-10-12T19:56:53.410Z,5.15
2022-10-12T19:59:29.277Z,5.13
2022-10-12T20:02:09.366Z,5.09
2022-10-12T20:04:45.489Z,5.09
2022-10-12T20:07:21.654Z,5.08
2022-10-12T20:09:57.661Z,5.05
2022-10-12T20:12:33.700Z,5.02
2022-10-12T20:15:12.474Z,4.98
2022-10-12T20:17:48.243Z,4.95
2022-10-12T20:20:24.230Z,4.90
2022-10-12T20:23:00.238Z,4.86
2022-10-12T20:25:40.775Z,4.83
2022-10-12T20:28:17.513Z,4.77
2022-10-12T20:30:53.880Z,4.72
2022-10-12T20:33:30.627Z,4.64
2022-10-12T20:36:11.406Z,4.63
2022-10-12T20:38:47.279Z,4.61
2022-10-12T20:41:24.603Z,4.59
2022-10-12T20:44:02.578Z,4.60
2022-10-12T20:46:38.411Z,4.58
2022-10-12T20:49:14.870Z,4.57
2022-10-12T20:51:50.721Z,4.55
2022-10-12T20:54:26.615Z,4.56
2022-10-12T20:57:02.452Z,4.59
2022-10-12T20:59:38.515Z,4.60
2022-10-12T21:02:15.148Z,4.59
2022-10-12T21:04:52.519Z,4.59
2022-10-12T21:07:28.337Z,4.60
2022-10-12T21:10:04.419Z,4.62
2022-10-12T21:12:40.282Z,4.65
2022-10-12T21:15:17.039Z,4.69
2022-10-12T21:17:52.861Z,4.69
2022-10-12T21:20:28.831Z,4.70
2022-10-12T21:23:04.841Z,4.75
2022-10-12T21:25:40.823Z,4.75
2022-10-12T21:28:16.929Z,4.74
2022-10-12T21:30:53.836Z,4.73
2022-10-12T21:33:29.900Z,4.73
2022-10-12T21:36:17.368Z,4.77
2022-10-12T21:38:54.219Z,4.78
2022-10-12T21:41:32.317Z,4.77
2022-10-12T21:44:09.035Z,4.76
2022-10-12T21:46:44.825Z,4.72
2022-10-12T21:49:20.604Z,4.68
2022-10-12T21:51:57.007Z,4.60
2022-10-12T21:54:33.213Z,4.55
2022-10-12T21:57:08.971Z,4.49
2022-10-12T21:59:44.757Z,4.44
2022-10-12T22:02:21.128Z,4.40
2022-10-12T22:04:57.194Z,4.41
2022-10-12T22:07:32.986Z,4.42
2022-10-12T22:10:11.236Z,4.44
2022-10-12T22:12:47.110Z,4.49
2022-10-12T22:15:22.887Z,4.53
2022-10-12T22:17:58.620Z,4.55
2022-10-12T22:20:36.681Z,4.56
2022-10-12T22:23:12.354Z,4.49
2022-10-12T22:25:48.266Z,4.41
2022-10-12T22:28:24.027Z,4.36
2022-10-12T22:31:00.376Z,4.35
2022-10-12T22:33:36.859Z,4.34
2022-10-12T22:36:16.236Z,4.32
2022-10-12T22:38:52.456Z,4.24
2022-10-12T22:41:28.486Z,4.19
2022-10-12T22:44:04.414Z,4.12
2022-10-12T22:46:40.329Z,4.05
2022-10-12T22:49:16.287Z,4.00
2022-10-12T22:51:52.187Z,3.95
2022-10-12T22:54:28.200Z,3.91
2022-10-12T22:57:03.982Z,3.85
2022-10-12T22:59:40.943Z,3.82
2022-10-12T23:02:17.255Z,3.80
2022-10-12T23:04:54.548Z,3.78
2022-10-12T23:07:30.345Z,3.75
2022-10-12T23:10:06.748Z,3.73
2022-10-12T23:12:42.553Z,3.74
2022-10-12T23:15:19.149Z,3.77
2022-10-12T23:17:56.487Z,3.76
2022-10-12T23:20:32.572Z,3.83
2022-10-12T23:23:10.928Z,3.90
2022-10-12T23:25:48.892Z,3.92
2022-10-12T23:28:24.782Z,3.91
2022-10-12T23:31:00.684Z,3.93
2022-10-12T23:33:37.467Z,3.95
2022-10-12T23:36:17.701Z,3.90
2022-10-12T23:38:53.672Z,3.88
2022-10-12T23:41:29.742Z,3.80
2022-10-12T23:44:06.044Z,3.73
2022-10-12T23:46:41.760Z,3.71
2022-10-12T23:49:17.516Z,3.69
2022-10-12T23:51:53.256Z,3.66
2022-10-12T23:54:29.515Z,3.63
2022-10-12T23:57:06.722Z,3.57
2022-10-12T23:59:49.940Z,3.58
